sensor_id;sensor_type;location;lat;lon;timestamp;pressure;altitude;pressure_sealevel;temperature;humidity
7670;BME280;3877;42.562;27.636;2023-08-20T00:01:38;101584.09;;;25.41;100.00
7670;BME280;3877;42.562;27.636;2023-08-20T00:04:06;101585.75;;;25.42;100.00
7670;BME280;3877;42.562;27.636;2023-08-20T00:06:35;101580.00;;;25.42;100.00
7670;BME280;3877;42.562;27.636;2023-08-20T00:09:04;101580.00;;;25.42;100.00
7670;BME280;3877;42.562;27.636;2023-08-20T00:11:32;101589.84;;;25.48;100.00
7670;BME280;3877;42.562;27.636;2023-08-20T00:13:59;101566.88;;;25.41;100.00
7670;BME280;3877;42.562;27.636;2023-08-20T00:16:27;101584.53;;;25.50;100.00
7670;BME280;3877;42.562;27.636;2023-08-20T00:18:55;101574.28;;;25.49;100.00
7670;BME280;3877;42.562;27.636;2023-08-20T00:21:23;101580.84;;;25.46;100.00
7670;BME280;3877;42.562;27.636;2023-08-20T00:23:53;101577.16;;;25.49;100.00
7670;BME280;3877;42.562;27.636;2023-08-20T00:26:22;101584.09;;;25.52;100.00
7670;BME280;3877;42.562;27.636;2023-08-20T00:28:49;101585.75;;;25.53;100.00
7670;BME280;3877;42.562;27.636;2023-08-20T00:31:16;101589.91;;;25.55;100.00
7670;BME280;3877;42.562;27.636;2023-08-20T00:33:44;101596.41;;;25.52;100.00
7670;BME280;3877;42.562;27.636;2023-08-20T00:36:11;101586.56;;;25.53;100.00
7670;BME280;3877;42.562;27.636;2023-08-20T00:38:38;101587.88;;;25.56;100.00
7670;BME280;3877;42.562;27.636;2023-08-20T00:41:05;101585.00;;;25.59;100.00
7670;BME280;3877;42.562;27.636;2023-08-20T00:43:34;101584.16;;;25.59;100.00
7670;BME280;3877;42.562;27.636;2023-08-20T00:46:02;101592.38;;;25.60;100.00
7670;BME280;3877;42.562;27.636;2023-08-20T00:48:30;101590.34;;;25.64;100.00
7670;BME280;3877;42.562;27.636;2023-08-20T00:50:57;101584.59;;;25.61;100.00
7670;BME280;3877;42.562;27.636;2023-08-20T00:53:24;101583.34;;;25.62;100.00
7670;BME280;3877;42.562;27.636;2023-08-20T00:55:52;101584.59;;;25.61;100.00
7670;BME280;3877;42.562;27.636;2023-08-20T00:58:19;101582.53;;;25.61;100.00
7670;BME280;3877;42.562;27.636;2023-08-20T01:00:48;101578.44;;;25.62;100.00
7670;BME280;3877;42.562;27.636;2023-08-20T01:03:16;101587.47;;;25.68;100.00
7670;BME280;3877;42.562;27.636;2023-08-20T01:05:49;101575.16;;;25.60;100.00
7670;BME280;3877;42.562;27.636;2023-08-20T01:08:26;101593.25;;;25.75;100.00
7670;BME280;3877;42.562;27.636;2023-08-20T01:10:59;101585.84;;;25.78;100.00
7670;BME280;3877;42.562;27.636;2023-08-20T01:13:29;101582.59;;;25.83;100.00
7670;BME280;3877;42.562;27.636;2023-08-20T01:15:58;101572.75;;;25.87;100.00
7670;BME280;3877;42.562;27.636;2023-08-20T01:18:25;101560.44;;;25.83;100.00
7670;BME280;3877;42.562;27.636;2023-08-20T01:20:56;101577.66;;;25.90;100.00
7670;BME280;3877;42.562;27.636;2023-08-20T01:26:40;101556.75;;;25.83;100.00
7670;BME280;3877;42.562;27.636;2023-08-20T01:29:13;101556.75;;;25.83;100.00
7670;BME280;3877;42.562;27.636;2023-08-20T01:31:41;101565.34;;;25.86;100.00
7670;BME280;3877;42.562;27.636;2023-08-20T01:34:10;101557.56;;;25.83;100.00
7670;BME280;3877;42.562;27.636;2023-08-20T01:36:38;101560.03;;;25.85;100.00
7670;BME280;3877;42.562;27.636;2023-08-20T01:39:06;101553.88;;;25.83;100.00
7670;BME280;3877;42.562;27.636;2023-08-20T01:41:33;101552.22;;;25.85;100.00
7670;BME280;3877;42.562;27.636;2023-08-20T01:44:00;101567.84;;;25.84;100.00
7670;BME280;3877;42.562;27.636;2023-08-20T01:46:29;101558.78;;;25.82;100.00
7670;BME280;3877;42.562;27.636;2023-08-20T01:48:57;101554.69;;;25.83;100.00
7670;BME280;3877;42.562;27.636;2023-08-20T01:51:24;101556.31;;;25.81;100.00
7670;BME280;3877;42.562;27.636;2023-08-20T01:53:52;101562.91;;;25.85;100.00
7670;BME280;3877;42.562;27.636;2023-08-20T01:56:19;101560.03;;;25.85;100.00
7670;BME280;3877;42.562;27.636;2023-08-20T01:58:46;101562.91;;;25.85;100.00
7670;BME280;3877;42.562;27.636;2023-08-20T02:01:13;101556.31;;;25.81;100.00
7670;BME280;3877;42.562;27.636;2023-08-20T02:03:42;101570.69;;;25.74;100.00
7670;BME280;3877;42.562;27.636;2023-08-20T02:06:09;101574.34;;;25.63;100.00
7670;BME280;3877;42.562;27.636;2023-08-20T02:08:37;101573.44;;;25.52;100.00
7670;BME280;3877;42.562;27.636;2023-08-20T02:11:04;101584.09;;;25.41;100.00
7670;BME280;3877;42.562;27.636;2023-08-20T02:13:31;101574.28;;;25.42;100.00
7670;BME280;3877;42.562;27.636;2023-08-20T02:16:00;101575.88;;;25.43;100.00
7670;BME280;3877;42.562;27.636;2023-08-20T02:18:27;101581.22;;;25.41;100.00
7670;BME280;3877;42.562;27.636;2023-08-20T02:20:56;101580.41;;;25.37;100.00
7670;BME280;3877;42.562;27.636;2023-08-20T02:23:23;101582.41;;;25.30;100.00
7670;BME280;3877;42.562;27.636;2023-08-20T02:25:51;101582.38;;;25.26;100.00
7670;BME280;3877;42.562;27.636;2023-08-20T02:28:18;101572.94;;;25.22;100.00
7670;BME280;3877;42.562;27.636;2023-08-20T02:30:47;101567.59;;;25.17;100.00
7670;BME280;3877;42.562;27.636;2023-08-20T02:33:14;101569.25;;;25.18;100.00
7670;BME280;3877;42.562;27.636;2023-08-20T02:35:42;101581.94;;;25.17;100.00
7670;BME280;3877;42.562;27.636;2023-08-20T02:38:10;101579.06;;;25.13;100.00
7670;BME280;3877;42.562;27.636;2023-08-20T02:40:40;101585.59;;;25.14;100.00
7670;BME280;3877;42.562;27.636;2023-08-20T02:43:08;101587.22;;;25.08;100.00
7670;BME280;3877;42.562;27.636;2023-08-20T02:45:40;101588.88;;;25.09;100.00
7670;BME280;3877;42.562;27.636;2023-08-20T02:48:07;101599.47;;;25.05;100.00
7670;BME280;3877;42.562;27.636;2023-08-20T02:50:35;101587.19;;;25.01;100.00
7670;BME280;3877;42.562;27.636;2023-08-20T02:53:03;101594.56;;;25.02;100.00
7670;BME280;3877;42.562;27.636;2023-08-20T02:55:32;101589.19;;;24.90;100.00
7670;BME280;3877;42.562;27.636;2023-08-20T02:58:01;101598.63;;;24.94;100.00
7670;BME280;3877;42.562;27.636;2023-08-20T03:00:29;101600.66;;;24.90;100.00
7670;BME280;3877;42.562;27.636;2023-08-20T03:02:57;101598.56;;;24.90;100.00
7670;BME280;3877;42.562;27.636;2023-08-20T03:05:24;101598.66;;;25.04;100.00
7670;BME280;3877;42.562;27.636;2023-08-20T03:07:51;101598.69;;;25.08;100.00
7670;BME280;3877;42.562;27.636;2023-08-20T03:10:19;101602.41;;;25.12;100.00
7670;BME280;3877;42.562;27.636;2023-08-20T03:12:47;101608.50;;;25.07;100.00
7670;BME280;3877;42.562;27.636;2023-08-20T03:15:15;101619.16;;;25.03;100.00
7670;BME280;3877;42.562;27.636;2023-08-20T03:17:42;101617.88;;;24.97;100.00
7670;BME280;3877;42.562;27.636;2023-08-20T03:20:11;101617.88;;;24.97;100.00
7670;BME280;3877;42.562;27.636;2023-08-20T03:22:38;101611.75;;;24.95;100.00
7670;BME280;3877;42.562;27.636;2023-08-20T03:25:06;101616.22;;;24.92;100.00
7670;BME280;3877;42.562;27.636;2023-08-20T03:27:34;101623.94;;;24.84;100.00
7670;BME280;3877;42.562;27.636;2023-08-20T03:30:04;101633.31;;;24.81;100.00
7670;BME280;3877;42.562;27.636;2023-08-20T03:32:31;101623.88;;;24.77;100.00
7670;BME280;3877;42.562;27.636;2023-08-20T03:34:58;101631.25;;;24.78;100.00
7670;BME280;3877;42.562;27.636;2023-08-20T03:37:26;101621.81;;;24.78;100.00
7670;BME280;3877;42.562;27.636;2023-08-20T03:39:53;101620.59;;;24.75;100.00
7670;BME280;3877;42.562;27.636;2023-08-20T03:42:21;101614.84;;;24.75;100.00
7670;BME280;3877;42.562;27.636;2023-08-20T03:44:48;101618.13;;;24.77;100.00
7670;BME280;3877;42.562;27.636;2023-08-20T03:47:16;101618.97;;;24.78;100.00
7670;BME280;3877;42.562;27.636;2023-08-20T03:49:46;101617.38;;;24.84;100.00
7670;BME280;3877;42.562;27.636;2023-08-20T03:52:13;101618.97;;;24.81;100.00
7670;BME280;3877;42.562;27.636;2023-08-20T03:54:41;101612.03;;;24.82;100.00
7670;BME280;3877;42.562;27.636;2023-08-20T03:57:08;101622.31;;;24.87;100.00
7670;BME280;3877;42.562;27.636;2023-08-20T03:59:35;101607.59;;;24.89;100.00
7670;BME280;3877;42.562;27.636;2023-08-20T04:02:03;101605.59;;;25.00;100.00
7670;BME280;3877;42.562;27.636;2023-08-20T04:04:32;101592.06;;;24.97;100.00
7670;BME280;3877;42.562;27.636;2023-08-20T04:06:59;101598.28;;;25.09;100.00
7670;BME280;3877;42.562;27.636;2023-08-20T04:09:26;101586.84;;;25.13;100.00
7670;BME280;3877;42.562;27.636;2023-08-20T04:11:54;101596.34;;;25.27;100.00
7670;BME280;3877;42.562;27.636;2023-08-20T04:14:21;101586.53;;;25.32;100.00
7670;BME280;3877;42.562;27.636;2023-08-20T04:16:49;101594.75;;;25.37;100.00
7670;BME280;3877;42.562;27.636;2023-08-20T04:19:16;101592.31;;;25.46;100.00
7670;BME280;3877;42.562;27.636;2023-08-20T04:21:45;101587.44;;;25.57;100.00
7670;BME280;3877;42.562;27.636;2023-08-20T04:24:12;101587.47;;;25.68;100.00
7670;BME280;3877;42.562;27.636;2023-08-20T04:26:40;101579.28;;;25.74;100.00
7670;BME280;3877;42.562;27.636;2023-08-20T04:29:08;101578.50;;;25.84;100.00
7670;BME280;3877;42.562;27.636;2023-08-20T04:31:35;101580.16;;;25.99;100.00
7670;BME280;3877;42.562;27.636;2023-08-20T04:34:03;101580.16;;;26.13;100.00
7670;BME280;3877;42.562;27.636;2023-08-20T04:36:31;101576.50;;;26.30;100.00
7670;BME280;3877;42.562;27.636;2023-08-20T04:39:00;101576.03;;;26.56;100.00
7670;BME280;3877;42.562;27.636;2023-08-20T04:41:28;101574.38;;;26.84;100.00
7670;BME280;3877;42.562;27.636;2023-08-20T04:43:55;101576.00;;;27.03;100.00
7670;BME280;3877;42.562;27.636;2023-08-20T04:46:23;101561.91;;;27.29;100.00
7670;BME280;3877;42.562;27.636;2023-08-20T04:48:50;101569.88;;;27.77;100.00
7670;BME280;3877;42.562;27.636;2023-08-20T04:51:18;101565.34;;;28.35;100.00
7670;BME280;3877;42.562;27.636;2023-08-20T04:53:45;101561.38;;;29.03;100.00
7670;BME280;3877;42.562;27.636;2023-08-20T04:56:14;101557.78;;;29.26;100.00
7670;BME280;3877;42.562;27.636;2023-08-20T04:58:41;101556.31;;;29.45;100.00
7670;BME280;3877;42.562;27.636;2023-08-20T05:01:09;101557.06;;;29.49;100.00
7670;BME280;3877;42.562;27.636;2023-08-20T05:03:37;101546.97;;;29.34;100.00
7670;BME280;3877;42.562;27.636;2023-08-20T05:06:04;101537.91;;;29.62;100.00
7670;BME280;3877;42.562;27.636;2023-08-20T05:08:31;101541.69;;;30.13;100.00
7670;BME280;3877;42.562;27.636;2023-08-20T05:10:58;101544.94;;;31.04;100.00
7670;BME280;3877;42.562;27.636;2023-08-20T05:13:28;101541.88;;;32.03;100.00
7670;BME280;3877;42.562;27.636;2023-08-20T05:15:55;101535.06;;;32.74;100.00
7670;BME280;3877;42.562;27.636;2023-08-20T05:18:22;101539.75;;;32.84;100.00
7670;BME280;3877;42.562;27.636;2023-08-20T05:20:50;101535.88;;;32.75;100.00
7670;BME280;3877;42.562;27.636;2023-08-20T05:23:17;101543.03;;;32.70;100.00
7670;BME280;3877;42.562;27.636;2023-08-20T05:25:44;101532.25;;;32.71;100.00
7670;BME280;3877;42.562;27.636;2023-08-20T05:28:14;101546.59;;;32.78;100.00
7670;BME280;3877;42.562;27.636;2023-08-20T05:30:43;101543.69;;;33.07;100.00
7670;BME280;3877;42.562;27.636;2023-08-20T05:33:10;101525.59;;;33.69;100.00
7670;BME280;3877;42.562;27.636;2023-08-20T05:35:38;101522.66;;;34.07;100.00
7670;BME280;3877;42.562;27.636;2023-08-20T05:38:05;101531.84;;;34.31;100.00
7670;BME280;3877;42.562;27.636;2023-08-20T05:40:33;101524.44;;;33.92;100.00
7670;BME280;3877;42.562;27.636;2023-08-20T05:43:00;101536.88;;;33.80;100.00
7670;BME280;3877;42.562;27.636;2023-08-20T05:45:28;101539.34;;;33.27;100.00
7670;BME280;3877;42.562;27.636;2023-08-20T05:48:00;101536.09;;;32.96;100.00
7670;BME280;3877;42.562;27.636;2023-08-20T05:50:28;101536.50;;;33.11;100.00
7670;BME280;3877;42.562;27.636;2023-08-20T05:52:55;101527.91;;;32.79;100.00
7670;BME280;3877;42.562;27.636;2023-08-20T05:55:23;101532.78;;;32.82;100.00
7670;BME280;3877;42.562;27.636;2023-08-20T05:57:50;101532.81;;;32.66;100.00
7670;BME280;3877;42.562;27.636;2023-08-20T06:00:17;101532.75;;;32.69;100.00
7670;BME280;3877;42.562;27.636;2023-08-20T06:02:45;101520.72;;;32.83;100.00
7670;BME280;3877;42.562;27.636;2023-08-20T06:05:13;101527.97;;;33.04;100.00
7670;BME280;3877;42.562;27.636;2023-08-20T06:07:40;101434.72;;;32.61;100.00
7670;BME280;3877;42.562;27.636;2023-08-20T06:10:08;101523.25;;;33.10;100.00
7670;BME280;3877;42.562;27.636;2023-08-20T06:12:37;101531.59;;;32.79;100.00
7670;BME280;3877;42.562;27.636;2023-08-20T06:15:06;101521.88;;;32.86;100.00
7670;BME280;3877;42.562;27.636;2023-08-20T06:17:33;101534.00;;;33.26;100.00
7670;BME280;3877;42.562;27.636;2023-08-20T06:20:00;101521.84;;;33.56;100.00
7670;BME280;3877;42.562;27.636;2023-08-20T06:22:32;101502.06;;;33.51;100.00
7670;BME280;3877;42.562;27.636;2023-08-20T06:25:00;101518.41;;;33.74;100.00
7670;BME280;3877;42.562;27.636;2023-08-20T06:27:28;101512.31;;;33.56;100.00
7670;BME280;3877;42.562;27.636;2023-08-20T06:29:55;101530.16;;;33.29;100.00
7670;BME280;3877;42.562;27.636;2023-08-20T06:32:23;101528.13;;;33.13;100.00
7670;BME280;3877;42.562;27.636;2023-08-20T06:34:50;101513.13;;;33.02;100.00
7670;BME280;3877;42.562;27.636;2023-08-20T06:37:17;101523.25;;;32.81;100.00
7670;BME280;3877;42.562;27.636;2023-08-20T06:39:46;101524.25;;;32.75;100.00
7670;BME280;3877;42.562;27.636;2023-08-20T06:42:14;101523.38;;;32.78;100.00
7670;BME280;3877;42.562;27.636;2023-08-20T06:44:42;101528.34;;;32.77;100.00
7670;BME280;3877;42.562;27.636;2023-08-20T06:47:10;101533.03;;;32.87;100.00
7670;BME280;3877;42.562;27.636;2023-08-20T06:49:37;101519.50;;;32.68;100.00
7670;BME280;3877;42.562;27.636;2023-08-20T06:52:04;101516.72;;;32.65;100.00
7670;BME280;3877;42.562;27.636;2023-08-20T06:54:32;101534.63;;;32.60;100.00
7670;BME280;3877;42.562;27.636;2023-08-20T06:57:00;101514.19;;;32.34;100.00
7670;BME280;3877;42.562;27.636;2023-08-20T06:59:28;101529.56;;;32.47;100.00
7670;BME280;3877;42.562;27.636;2023-08-20T07:01:55;101532.84;;;32.49;100.00
7670;BME280;3877;42.562;27.636;2023-08-20T07:04:22;101529.94;;;32.49;100.00
7670;BME280;3877;42.562;27.636;2023-08-20T07:06:50;101500.22;;;32.45;100.00
7670;BME280;3877;42.562;27.636;2023-08-20T07:09:17;101528.84;;;32.88;100.00
7670;BME280;3877;42.562;27.636;2023-08-20T07:11:45;101529.78;;;32.85;100.00
7670;BME280;3877;42.562;27.636;2023-08-20T07:14:13;101527.13;;;32.91;100.00
7670;BME280;3877;42.562;27.636;2023-08-20T07:16:40;101531.00;;;32.72;100.00
7670;BME280;3877;42.562;27.636;2023-08-20T07:19:08;101529.88;;;32.82;100.00
7670;BME280;3877;42.562;27.636;2023-08-20T07:21:35;101527.50;;;32.64;100.00
7670;BME280;3877;42.562;27.636;2023-08-20T07:24:03;101528.81;;;32.76;100.00
7670;BME280;3877;42.562;27.636;2023-08-20T07:26:30;101517.34;;;32.85;100.00
7670;BME280;3877;42.562;27.636;2023-08-20T07:28:58;101429.84;;;32.12;100.00
7670;BME280;3877;42.562;27.636;2023-08-20T07:31:26;101522.03;;;32.66;100.00
7670;BME280;3877;42.562;27.636;2023-08-20T07:33:54;101532.19;;;32.58;100.00
7670;BME280;3877;42.562;27.636;2023-08-20T07:36:22;101527.16;;;32.75;100.00
7670;BME280;3877;42.562;27.636;2023-08-20T07:38:50;101527.13;;;32.91;100.00
7670;BME280;3877;42.562;27.636;2023-08-20T07:41:18;101526.19;;;32.94;100.00
7670;BME280;3877;42.562;27.636;2023-08-20T07:43:46;101520.50;;;32.90;100.00
7670;BME280;3877;42.562;27.636;2023-08-20T07:46:14;101518.06;;;32.89;100.00
7670;BME280;3877;42.562;27.636;2023-08-20T07:48:42;101505.75;;;32.85;100.00
7670;BME280;3877;42.562;27.636;2023-08-20T07:51:10;101514.97;;;32.96;100.00
7670;BME280;3877;42.562;27.636;2023-08-20T07:53:37;101508.09;;;32.90;100.00
7670;BME280;3877;42.562;27.636;2023-08-20T07:56:05;101516.16;;;33.11;100.00
7670;BME280;3877;42.562;27.636;2023-08-20T07:58:32;101509.59;;;32.94;100.00
7670;BME280;3877;42.562;27.636;2023-08-20T08:00:59;101503.09;;;32.90;100.00
7670;BME280;3877;42.562;27.636;2023-08-20T08:03:27;101504.72;;;32.91;100.00
7670;BME280;3877;42.562;27.636;2023-08-20T08:05:55;101511.84;;;33.03;100.00
7670;BME280;3877;42.562;27.636;2023-08-20T08:08:23;101501.13;;;33.16;100.00
7670;BME280;3877;42.562;27.636;2023-08-20T08:10:50;101502.81;;;33.14;100.00
7670;BME280;3877;42.562;27.636;2023-08-20T08:13:20;101497.06;;;33.26;100.00
7670;BME280;3877;42.562;27.636;2023-08-20T08:15:48;101503.59;;;33.30;100.00
7670;BME280;3877;42.562;27.636;2023-08-20T08:18:16;101492.13;;;33.11;100.00
7670;BME280;3877;42.562;27.636;2023-08-20T08:20:43;101486.38;;;33.23;100.00
7670;BME280;3877;42.562;27.636;2023-08-20T08:23:12;101489.75;;;33.34;100.00
7670;BME280;3877;42.562;27.636;2023-08-20T08:25:40;101486.38;;;33.23;100.00
7670;BME280;3877;42.562;27.636;2023-08-20T08:28:07;101491.66;;;33.12;100.00
7670;BME280;3877;42.562;27.636;2023-08-20T08:30:34;101491.88;;;33.05;100.00
7670;BME280;3877;42.562;27.636;2023-08-20T08:33:01;101487.47;;;33.13;100.00
7670;BME280;3877;42.562;27.636;2023-08-20T08:35:29;101484.31;;;33.08;100.00
7670;BME280;3877;42.562;27.636;2023-08-20T08:37:57;101479.16;;;33.15;100.00
7670;BME280;3877;42.562;27.636;2023-08-20T08:40:28;101494.75;;;33.21;100.00
7670;BME280;3877;42.562;27.636;2023-08-20T08:42:56;101492.16;;;33.23;100.00
7670;BME280;3877;42.562;27.636;2023-08-20T08:45:24;101492.75;;;33.18;100.00
7670;BME280;3877;42.562;27.636;2023-08-20T08:47:54;101476.59;;;33.17;100.00
7670;BME280;3877;42.562;27.636;2023-08-20T08:50:21;101484.44;;;33.04;100.00
7670;BME280;3877;42.562;27.636;2023-08-20T08:52:51;101484.66;;;32.97;100.00
7670;BME280;3877;42.562;27.636;2023-08-20T08:55:18;101481.06;;;32.93;100.00
7670;BME280;3877;42.562;27.636;2023-08-20T08:57:47;101476.38;;;33.24;100.00
7670;BME280;3877;42.562;27.636;2023-08-20T09:00:15;101479.41;;;33.33;100.00
7670;BME280;3877;42.562;27.636;2023-08-20T09:02:42;101457.69;;;33.38;100.00
7670;BME280;3877;42.562;27.636;2023-08-20T09:05:10;101464.34;;;33.64;100.00
7670;BME280;3877;42.562;27.636;2023-08-20T09:07:42;101466.31;;;33.92;100.00
7670;BME280;3877;42.562;27.636;2023-08-20T09:10:10;101467.22;;;34.02;100.00
7670;BME280;3877;42.562;27.636;2023-08-20T09:12:38;101462.31;;;33.99;100.00
7670;BME280;3877;42.562;27.636;2023-08-20T09:15:11;101460.09;;;34.03;100.00
7670;BME280;3877;42.562;27.636;2023-08-20T09:17:40;101441.47;;;33.78;100.00
7670;BME280;3877;42.562;27.636;2023-08-20T09:20:08;101447.28;;;33.78;100.00
7670;BME280;3877;42.562;27.636;2023-08-20T09:22:36;101461.78;;;33.91;100.00
7670;BME280;3877;42.562;27.636;2023-08-20T09:25:04;101463.16;;;33.99;100.00
7670;BME280;3877;42.562;27.636;2023-08-20T09:27:38;101462.44;;;34.20;100.00
7670;BME280;3877;42.562;27.636;2023-08-20T09:30:08;101451.66;;;34.43;100.00
7670;BME280;3877;42.562;27.636;2023-08-20T09:33:06;101450.31;;;34.56;100.00
7670;BME280;3877;42.562;27.636;2023-08-20T09:35:34;101448.56;;;34.59;100.00
7670;BME280;3877;42.562;27.636;2023-08-20T09:38:03;101446.13;;;34.57;100.00
7670;BME280;3877;42.562;27.636;2023-08-20T09:40:31;101461.66;;;34.42;100.00
7670;BME280;3877;42.562;27.636;2023-08-20T09:43:00;101454.63;;;34.52;100.00
7670;BME280;3877;42.562;27.636;2023-08-20T09:45:29;101452.75;;;34.58;100.00
7670;BME280;3877;42.562;27.636;2023-08-20T09:47:58;101444.44;;;34.69;100.00
7670;BME280;3877;42.562;27.636;2023-08-20T09:50:28;101445.22;;;34.82;100.00
7670;BME280;3877;42.562;27.636;2023-08-20T09:53:06;101438.94;;;34.93;100.00
7670;BME280;3877;42.562;27.636;2023-08-20T09:55:41;101442.72;;;35.02;100.00
7670;BME280;3877;42.562;27.636;2023-08-20T09:58:09;101437.31;;;35.13;100.00
7670;BME280;3877;42.562;27.636;2023-08-20T10:00:37;101442.63;;;35.37;100.00
7670;BME280;3877;42.562;27.636;2023-08-20T10:03:05;101447.75;;;35.24;100.00
7670;BME280;3877;42.562;27.636;2023-08-20T10:05:35;101443.44;;;35.06;100.00
7670;BME280;3877;42.562;27.636;2023-08-20T10:08:03;101437.97;;;34.87;100.00
7670;BME280;3877;42.562;27.636;2023-08-20T10:10:30;101446.50;;;34.47;100.00
7670;BME280;3877;42.562;27.636;2023-08-20T10:12:58;101443.53;;;34.38;100.00
7670;BME280;3877;42.562;27.636;2023-08-20T10:15:26;101442.38;;;33.88;100.00
7670;BME280;3877;42.562;27.636;2023-08-20T10:17:57;101451.31;;;33.81;100.00
7670;BME280;3877;42.562;27.636;2023-08-20T10:20:28;101448.75;;;33.58;100.00
7670;BME280;3877;42.562;27.636;2023-08-20T10:23:00;101438.75;;;33.33;100.00
7670;BME280;3877;42.562;27.636;2023-08-20T10:25:30;101419.75;;;32.78;100.00
7670;BME280;3877;42.562;27.636;2023-08-20T10:28:12;101445.72;;;32.53;100.00
7670;BME280;3877;42.562;27.636;2023-08-20T10:31:04;101444.53;;;31.89;100.00
7670;BME280;3877;42.562;27.636;2023-08-20T10:33:34;101453.22;;;31.57;100.00
7670;BME280;3877;42.562;27.636;2023-08-20T10:36:09;101445.41;;;31.18;100.00
7670;BME280;3877;42.562;27.636;2023-08-20T10:38:39;101448.38;;;30.95;100.00
7670;BME280;3877;42.562;27.636;2023-08-20T10:41:07;101445.50;;;30.95;100.00
7670;BME280;3877;42.562;27.636;2023-08-20T10:43:37;101452.53;;;30.94;100.00
7670;BME280;3877;42.562;27.636;2023-08-20T10:46:14;101455.09;;;30.92;100.00
7670;BME280;3877;42.562;27.636;2023-08-20T10:48:43;101465.91;;;30.88;100.00
7670;BME280;3877;42.562;27.636;2023-08-20T10:51:14;101447.63;;;30.74;100.00
7670;BME280;3877;42.562;27.636;2023-08-20T10:53:48;101465.53;;;30.85;100.00
7670;BME280;3877;42.562;27.636;2023-08-20T10:56:17;101451.06;;;30.85;100.00
7670;BME280;3877;42.562;27.636;2023-08-20T10:58:46;101450.50;;;30.74;100.00
7670;BME280;3877;42.562;27.636;2023-08-20T11:01:14;101442.03;;;30.83;100.00
7670;BME280;3877;42.562;27.636;2023-08-20T11:03:41;101457.03;;;30.78;100.00
7670;BME280;3877;42.562;27.636;2023-08-20T11:06:09;101448.69;;;30.61;100.00
7670;BME280;3877;42.562;27.636;2023-08-20T11:08:37;101449.19;;;30.36;100.00
7670;BME280;3877;42.562;27.636;2023-08-20T11:11:06;101450.44;;;30.35;100.00
7670;BME280;3877;42.562;27.636;2023-08-20T11:13:34;101435.28;;;30.08;100.00
7670;BME280;3877;42.562;27.636;2023-08-20T11:16:02;101447.06;;;30.17;100.00
7670;BME280;3877;42.562;27.636;2023-08-20T11:18:30;101421.88;;;29.94;100.00
7670;BME280;3877;42.562;27.636;2023-08-20T11:21:00;101450.78;;;30.17;100.00
7670;BME280;3877;42.562;27.636;2023-08-20T11:23:28;101445.59;;;30.28;100.00
7670;BME280;3877;42.562;27.636;2023-08-20T11:25:56;101447.13;;;30.36;100.00
7670;BME280;3877;42.562;27.636;2023-08-20T11:28:29;101447.97;;;30.33;100.00
7670;BME280;3877;42.562;27.636;2023-08-20T11:30:57;101455.31;;;30.38;100.00
7670;BME280;3877;42.562;27.636;2023-08-20T11:33:24;101447.78;;;30.44;100.00
7670;BME280;3877;42.562;27.636;2023-08-20T11:35:52;101448.94;;;30.50;100.00
7670;BME280;3877;42.562;27.636;2023-08-20T11:38:22;101447.63;;;30.74;100.00
7670;BME280;3877;42.562;27.636;2023-08-20T11:40:50;101446.31;;;30.75;100.00
7670;BME280;3877;42.562;27.636;2023-08-20T11:43:17;101435.06;;;30.61;100.00
7670;BME280;3877;42.562;27.636;2023-08-20T11:45:47;101459.69;;;30.69;100.00
7670;BME280;3877;42.562;27.636;2023-08-20T11:48:15;101458.06;;;30.68;100.00
7670;BME280;3877;42.562;27.636;2023-08-20T11:50:43;101460.00;;;30.55;100.00
7670;BME280;3877;42.562;27.636;2023-08-20T11:53:11;101448.66;;;30.64;100.00
7670;BME280;3877;42.562;27.636;2023-08-20T11:55:39;101446.53;;;30.84;100.00
7670;BME280;3877;42.562;27.636;2023-08-20T11:58:12;101449.00;;;31.06;100.00
7670;BME280;3877;42.562;27.636;2023-08-20T12:00:40;101449.13;;;30.99;100.00
7670;BME280;3877;42.562;27.636;2023-08-20T12:03:10;101448.09;;;31.09;100.00
7670;BME280;3877;42.562;27.636;2023-08-20T12:05:41;101443.22;;;31.06;100.00
7670;BME280;3877;42.562;27.636;2023-08-20T12:08:08;101448.09;;;31.09;100.00
7670;BME280;3877;42.562;27.636;2023-08-20T12:10:42;101449.22;;;31.15;100.00
7670;BME280;3877;42.562;27.636;2023-08-20T12:13:10;101449.81;;;31.26;100.00
7670;BME280;3877;42.562;27.636;2023-08-20T12:15:38;101446.56;;;31.40;100.00
7670;BME280;3877;42.562;27.636;2023-08-20T12:18:05;101442.38;;;31.41;100.00
7670;BME280;3877;42.562;27.636;2023-08-20T12:20:36;101445.47;;;31.34;100.00
7670;BME280;3877;42.562;27.636;2023-08-20T12:23:05;101443.28;;;31.22;100.00
7670;BME280;3877;42.562;27.636;2023-08-20T12:25:33;101442.91;;;31.20;100.00
7670;BME280;3877;42.562;27.636;2023-08-20T12:28:01;101438.28;;;31.22;100.00
7670;BME280;3877;42.562;27.636;2023-08-20T12:30:29;101445.59;;;31.11;100.00
7670;BME280;3877;42.562;27.636;2023-08-20T12:32:56;101440.34;;;31.06;100.00
7670;BME280;3877;42.562;27.636;2023-08-20T12:35:23;101448.19;;;31.05;100.00
7670;BME280;3877;42.562;27.636;2023-08-20T12:37:52;101436.19;;;31.07;100.00
7670;BME280;3877;42.562;27.636;2023-08-20T12:40:19;101447.25;;;31.28;100.00
7670;BME280;3877;42.562;27.636;2023-08-20T12:42:47;101437.94;;;31.20;100.00
7670;BME280;3877;42.562;27.636;2023-08-20T12:45:15;101437.00;;;30.88;100.00
7670;BME280;3877;42.562;27.636;2023-08-20T12:47:42;101431.81;;;30.79;100.00
7670;BME280;3877;42.562;27.636;2023-08-20T12:50:10;101443.81;;;30.77;100.00
7670;BME280;3877;42.562;27.636;2023-08-20T12:52:40;101438.16;;;30.70;100.00
7670;BME280;3877;42.562;27.636;2023-08-20T12:55:10;101432.94;;;30.42;100.00
7670;BME280;3877;42.562;27.636;2023-08-20T12:57:52;101435.47;;;30.40;100.00
7670;BME280;3877;42.562;27.636;2023-08-20T13:00:20;101432.34;;;30.31;100.00